createdAt,value
2022-10-20T00:04:18.159Z,97.79
2022-10-20T00:06:44.574Z,98.42
2022-10-20T00:09:11.419Z,97.99
2022-10-20T00:11:38.298Z,97.77
2022-10-20T00:14:05.042Z,98.05
2022-10-20T00:16:35.003Z,97.71
2022-10-20T00:19:01.403Z,98.58
2022-10-20T00:21:29.050Z,99.04
2022-10-20T00:23:55.767Z,98.58
2022-10-20T00:26:24.909Z,97.96
2022-10-20T00:28:52.716Z,98.98
2022-10-20T00:31:20.614Z,98.78
2022-10-20T00:33:47.419Z,99.99
2022-10-20T00:36:17.743Z,99.67
2022-10-20T00:38:44.288Z,100.00
2022-10-20T00:41:14.595Z,100.00
2022-10-20T00:43:51.476Z,100.00
2022-10-20T00:46:21.593Z,99.93
2022-10-20T00:48:51.686Z,98.10
2022-10-20T00:51:22.906Z,98.08
2022-10-20T00:53:53.519Z,96.93
2022-10-20T00:56:20.660Z,96.88
2022-10-20T00:58:47.470Z,98.21
2022-10-20T01:01:14.681Z,99.68
2022-10-20T01:03:50.217Z,100.00
2022-10-20T01:06:19.439Z,100.00
2022-10-20T01:08:46.015Z,100.00
2022-10-20T01:11:27.551Z,99.20
2022-10-20T01:14:41.002Z,98.99
2022-10-20T01:17:28.774Z,98.84
2022-10-20T01:20:22.814Z,99.48
2022-10-20T01:23:11.059Z,99.64
2022-10-20T01:26:03.679Z,98.78
2022-10-20T01:28:51.747Z,99.68
2022-10-20T01:31:33.862Z,99.80
2022-10-20T01:34:18.327Z,100.00
2022-10-20T01:36:55.581Z,100.00
2022-10-20T01:39:30.947Z,100.00
2022-10-20T01:42:04.840Z,100.00
2022-10-20T01:44:33.502Z,100.00
2022-10-20T01:47:01.034Z,100.00
2022-10-20T01:49:27.693Z,100.00
2022-10-20T01:51:55.272Z,100.00
2022-10-20T01:54:23.538Z,100.00
2022-10-20T01:57:22.872Z,100.00
2022-10-20T02:00:12.426Z,100.00
2022-10-20T02:03:14.725Z,100.00
2022-10-20T02:06:24.707Z,100.00
2022-10-20T02:08:54.487Z,100.00
2022-10-20T02:11:45.292Z,100.00
2022-10-20T02:14:14.747Z,100.00
2022-10-20T02:16:47.895Z,100.00
2022-10-20T02:19:17.906Z,100.00
2022-10-20T02:21:46.857Z,100.00
2022-10-20T02:24:15.950Z,99.23
2022-10-20T02:26:43.619Z,99.69
2022-10-20T02:29:25.281Z,99.68
2022-10-20T02:31:51.865Z,99.13
2022-10-20T02:34:18.399Z,100.00
2022-10-20T02:36:45.375Z,100.00
2022-10-20T02:39:12.534Z,100.00
2022-10-20T02:41:38.948Z,100.00
2022-10-20T02:44:05.410Z,100.00
2022-10-20T02:46:31.836Z,100.00
2022-10-20T02:48:58.246Z,100.00
2022-10-20T02:51:24.690Z,100.00
2022-10-20T02:53:51.150Z,100.00
2022-10-20T02:56:17.515Z,100.00
2022-10-20T02:58:43.902Z,100.00
2022-10-20T03:01:10.594Z,100.00
2022-10-20T03:03:37.048Z,100.00
2022-10-20T03:06:12.247Z,100.00
2022-10-20T03:08:38.674Z,100.00
2022-10-20T03:11:05.327Z,100.00
2022-10-20T03:13:31.965Z,100.00
2022-10-20T03:15:58.391Z,100.00
2022-10-20T03:18:24.853Z,100.00
2022-10-20T03:20:52.339Z,100.00
2022-10-20T03:23:20.133Z,100.00
2022-10-20T03:25:47.032Z,100.00
2022-10-20T03:28:13.587Z,100.00
2022-10-20T03:30:40.339Z,100.00
2022-10-20T03:33:06.858Z,100.00
2022-10-20T03:35:33.299Z,100.00
2022-10-20T03:37:59.692Z,100.00
2022-10-20T03:40:26.227Z,100.00
2022-10-20T03:42:52.652Z,100.00
2022-10-20T03:45:19.067Z,100.00
2022-10-20T03:47:45.454Z,100.00
2022-10-20T03:50:11.835Z,100.00
2022-10-20T03:52:38.378Z,100.00
2022-10-20T03:55:05.351Z,100.00
2022-10-20T03:57:31.726Z,100.00
2022-10-20T03:59:58.109Z,100.00
2022-10-20T04:02:33.751Z,100.00
2022-10-20T04:05:01.532Z,100.00
2022-10-20T04:07:28.059Z,100.00
2022-10-20T04:09:54.456Z,100.00
2022-10-20T04:12:20.844Z,100.00
2022-10-20T04:14:47.954Z,100.00
2022-10-20T04:17:14.598Z,100.00
2022-10-20T04:19:40.998Z,100.00
2022-10-20T04:22:07.396Z,100.00
2022-10-20T04:24:33.776Z,100.00
2022-10-20T04:27:00.180Z,100.00
2022-10-20T04:29:26.555Z,100.00
2022-10-20T04:31:52.935Z,100.00
2022-10-20T04:34:19.333Z,100.00
2022-10-20T04:36:45.725Z,100.00
2022-10-20T04:39:12.144Z,100.00
2022-10-20T04:41:38.534Z,100.00
2022-10-20T04:44:04.998Z,100.00
2022-10-20T04:46:31.425Z,100.00
2022-10-20T04:48:57.801Z,100.00
2022-10-20T04:51:24.395Z,100.00
2022-10-20T04:53:50.787Z,100.00
2022-10-20T04:56:19.721Z,100.00
2022-10-20T04:58:50.234Z,100.00
2022-10-20T05:01:17.011Z,100.00
2022-10-20T05:03:43.670Z,100.00
2022-10-20T05:06:09.983Z,100.00
2022-10-20T05:08:36.606Z,100.00
2022-10-20T05:11:03.382Z,100.00
2022-10-20T05:13:29.788Z,100.00
2022-10-20T05:15:56.183Z,100.00
2022-10-20T05:18:22.669Z,100.00
2022-10-20T05:21:07.664Z,100.00
2022-10-20T05:23:35.366Z,100.00
2022-10-20T05:26:05.901Z,100.00
2022-10-20T05:28:32.315Z,100.00
2022-10-20T05:31:06.755Z,100.00
2022-10-20T05:33:34.190Z,100.00
2022-10-20T05:36:00.826Z,100.00
2022-10-20T05:38:27.331Z,100.00
2022-10-20T05:40:53.710Z,100.00
2022-10-20T05:43:20.123Z,100.00
2022-10-20T05:45:46.498Z,100.00
2022-10-20T05:48:12.897Z,100.00
2022-10-20T05:50:39.300Z,100.00
2022-10-20T05:53:05.701Z,100.00
2022-10-20T05:55:32.930Z,100.00
2022-10-20T05:58:01.907Z,100.00
2022-10-20T06:00:31.226Z,100.00
2022-10-20T06:02:57.896Z,100.00
2022-10-20T06:05:24.343Z,100.00
2022-10-20T06:07:54.367Z,100.00
2022-10-20T06:10:20.755Z,100.00
2022-10-20T06:12:47.130Z,100.00
2022-10-20T06:15:13.524Z,100.00
2022-10-20T06:17:39.905Z,100.00
2022-10-20T06:20:06.599Z,100.00
2022-10-20T06:22:32.991Z,100.00
2022-10-20T06:24:59.402Z,100.00
2022-10-20T06:27:25.785Z,100.00
2022-10-20T06:29:54.683Z,100.00
2022-10-20T06:32:21.072Z,100.00
2022-10-20T06:34:47.480Z,100.00
2022-10-20T06:37:13.855Z,100.00
2022-10-20T06:39:40.238Z,100.00
2022-10-20T06:42:09.644Z,100.00
2022-10-20T06:44:44.592Z,100.00
2022-10-20T06:47:10.967Z,100.00
2022-10-20T06:49:37.355Z,100.00
2022-10-20T06:52:04.083Z,100.00
2022-10-20T06:54:30.551Z,100.00
2022-10-20T06:56:56.932Z,100.00
2022-10-20T06:59:23.343Z,100.00
2022-10-20T07:01:49.791Z,100.00
2022-10-20T07:04:16.667Z,100.00
2022-10-20T07:06:44.676Z,100.00
2022-10-20T07:09:17.148Z,100.00
2022-10-20T07:11:44.037Z,100.00
2022-10-20T07:14:13.581Z,100.00
2022-10-20T07:16:39.960Z,100.00
2022-10-20T07:19:06.340Z,100.00
2022-10-20T07:21:36.028Z,98.87
2022-10-20T07:24:04.879Z,97.83
2022-10-20T07:26:34.172Z,97.71
2022-10-20T07:29:01.629Z,97.61
2022-10-20T07:31:39.774Z,97.98
2022-10-20T07:36:56.176Z,97.21
2022-10-20T07:39:23.131Z,96.48
2022-10-20T07:41:49.775Z,95.24
2022-10-20T07:44:16.625Z,94.19
2022-10-20T07:46:43.620Z,93.17
2022-10-20T07:49:42.909Z,93.67
2022-10-20T07:51:56.720Z,92.36
2022-10-20T07:54:23.157Z,91.46
2022-10-20T07:56:49.721Z,90.94
2022-10-20T07:59:16.777Z,91.02
2022-10-20T08:01:43.889Z,91.14
2022-10-20T08:04:10.911Z,89.77
2022-10-20T08:06:39.248Z,89.84
2022-10-20T08:09:05.987Z,89.93
2022-10-20T08:11:32.452Z,89.69
2022-10-20T08:13:58.858Z,89.01
2022-10-20T08:16:34.068Z,89.69
2022-10-20T08:19:38.207Z,89.16
2022-10-20T08:21:48.646Z,89.32
2022-10-20T08:24:15.075Z,89.93
2022-10-20T08:26:41.459Z,88.98
2022-10-20T08:29:09.075Z,89.21
2022-10-20T08:31:35.532Z,89.66
2022-10-20T08:34:01.966Z,89.38
2022-10-20T08:36:28.486Z,88.96
2022-10-20T08:38:56.334Z,88.88
2022-10-20T08:41:27.101Z,88.45
2022-10-20T08:43:57.329Z,88.22
2022-10-20T08:46:32.198Z,88.28
2022-10-20T08:48:59.075Z,87.75
2022-10-20T08:51:33.434Z,86.99
2022-10-20T08:54:02.447Z,86.63
2022-10-20T08:56:30.702Z,86.27
2022-10-20T08:58:57.338Z,85.43
2022-10-20T09:01:32.517Z,85.69
2022-10-20T09:04:04.467Z,85.64
2022-10-20T09:06:31.149Z,85.34
2022-10-20T09:08:57.940Z,85.67
2022-10-20T09:11:32.045Z,86.48
2022-10-20T09:13:58.518Z,85.01
2022-10-20T09:16:41.759Z,85.24
2022-10-20T09:19:21.179Z,84.80
2022-10-20T09:21:53.242Z,85.30
2022-10-20T09:24:22.246Z,84.82
2022-10-20T09:26:58.772Z,84.52
2022-10-20T09:29:37.367Z,84.57
2022-10-20T09:32:34.001Z,85.04
2022-10-20T09:34:50.162Z,84.92
2022-10-20T09:37:19.631Z,84.08
2022-10-20T09:39:58.108Z,84.07
2022-10-20T09:42:34.309Z,82.52
2022-10-20T09:45:04.539Z,84.53
2022-10-20T09:47:33.367Z,83.18
2022-10-20T09:50:02.939Z,82.76
2022-10-20T09:52:34.513Z,83.24
2022-10-20T09:55:17.029Z,82.03
2022-10-20T09:57:47.724Z,81.66
2022-10-20T10:00:37.154Z,82.69
2022-10-20T10:03:22.183Z,82.08
2022-10-20T10:05:59.469Z,81.74
2022-10-20T10:08:29.711Z,81.03
2022-10-20T10:11:05.097Z,80.23
2022-10-20T10:13:40.771Z,80.25
2022-10-20T10:16:10.424Z,79.24
2022-10-20T10:18:38.355Z,79.84
2022-10-20T10:21:11.232Z,78.63
2022-10-20T10:23:52.490Z,78.71
2022-10-20T10:26:45.314Z,78.80
2022-10-20T10:29:35.493Z,78.09
2022-10-20T10:32:13.841Z,78.34
2022-10-20T10:35:01.085Z,77.51
2022-10-20T10:37:32.286Z,77.81
2022-10-20T10:40:03.590Z,77.35
2022-10-20T10:42:36.483Z,76.80
2022-10-20T10:45:19.404Z,76.39
2022-10-20T10:48:12.555Z,75.86
2022-10-20T10:50:57.094Z,74.68
2022-10-20T10:53:34.075Z,74.83
2022-10-20T10:56:11.468Z,73.92
2022-10-20T10:58:51.203Z,74.30
2022-10-20T11:01:40.486Z,72.34
2022-10-20T11:04:29.777Z,72.03
2022-10-20T11:07:24.508Z,72.12
2022-10-20T11:10:20.074Z,71.13
2022-10-20T11:13:11.203Z,70.21
2022-10-20T11:15:46.769Z,69.23
2022-10-20T11:18:39.583Z,69.12
2022-10-20T11:21:18.792Z,70.21
2022-10-20T11:24:12.828Z,69.07
2022-10-20T11:26:43.062Z,69.06
2022-10-20T11:29:19.371Z,68.71
2022-10-20T11:31:54.561Z,68.25
2022-10-20T11:34:37.450Z,67.95
2022-10-20T11:37:13.069Z,67.89
2022-10-20T11:39:51.991Z,67.80
2022-10-20T11:42:41.992Z,68.10
2022-10-20T11:45:34.350Z,68.34
2022-10-20T11:48:11.313Z,69.32
2022-10-20T11:50:39.729Z,67.61
2022-10-20T11:53:22.598Z,66.69
2022-10-20T11:56:05.765Z,65.94
2022-10-20T11:58:45.733Z,66.80
2022-10-20T12:01:35.683Z,66.21
2022-10-20T12:04:30.031Z,66.90
2022-10-20T12:07:36.384Z,66.85
2022-10-20T12:10:27.855Z,65.21
2022-10-20T12:13:21.248Z,65.45
2022-10-20T12:15:50.316Z,65.34
2022-10-20T12:18:30.232Z,65.90
2022-10-20T12:21:01.557Z,65.70
2022-10-20T12:23:43.056Z,65.01
2022-10-20T12:26:34.268Z,64.87
2022-10-20T12:29:01.516Z,65.34
2022-10-20T12:32:12.691Z,64.57
2022-10-20T12:34:41.169Z,65.05
2022-10-20T12:37:26.962Z,64.75
2022-10-20T12:39:55.690Z,64.81
2022-10-20T12:42:36.447Z,63.87
2022-10-20T12:45:04.732Z,62.94
2022-10-20T12:47:33.396Z,63.36
2022-10-20T12:50:04.479Z,63.70
2022-10-20T12:52:33.269Z,64.83
2022-10-20T12:55:06.992Z,63.96
2022-10-20T12:57:38.090Z,63.62
2022-10-20T13:00:07.624Z,63.43
2022-10-20T13:02:44.989Z,64.20
2022-10-20T13:05:14.357Z,63.44
2022-10-20T13:07:46.912Z,62.48
2022-10-20T13:10:38.637Z,61.87
2022-10-20T13:13:04.971Z,61.80
2022-10-20T13:15:38.987Z,61.25
2022-10-20T13:18:11.554Z,61.36
2022-10-20T13:21:00.057Z,60.98
2022-10-20T13:23:41.171Z,61.98
2022-10-20T13:26:21.296Z,61.95
2022-10-20T13:28:49.228Z,61.92
2022-10-20T13:31:24.437Z,61.03
2022-10-20T13:34:18.139Z,62.17
2022-10-20T13:37:07.414Z,62.80
2022-10-20T13:39:41.130Z,62.02
2022-10-20T13:42:29.864Z,62.98
2022-10-20T13:45:15.054Z,62.89
2022-10-20T13:47:48.093Z,62.14
2022-10-20T13:50:20.147Z,62.18
2022-10-20T13:52:50.706Z,61.76
2022-10-20T13:55:26.692Z,62.15
2022-10-20T13:57:56.077Z,61.20
2022-10-20T14:00:29.411Z,62.06
2022-10-20T14:02:59.150Z,62.05
2022-10-20T14:05:27.443Z,62.43
2022-10-20T14:07:54.893Z,62.59
2022-10-20T14:10:42.903Z,62.71
2022-10-20T14:13:14.534Z,62.79
2022-10-20T14:15:48.423Z,63.03
2022-10-20T14:18:30.507Z,62.58
2022-10-20T14:21:03.106Z,62.50
2022-10-20T14:23:41.847Z,62.07
2022-10-20T14:26:14.034Z,62.57
2022-10-20T14:28:43.079Z,62.62
2022-10-20T14:31:14.439Z,62.23
2022-10-20T14:33:44.067Z,62.04
2022-10-20T14:36:20.257Z,62.64
2022-10-20T14:38:49.842Z,62.35
2022-10-20T14:41:26.296Z,62.73
2022-10-20T14:43:58.962Z,63.11
2022-10-20T14:46:35.157Z,63.16
2022-10-20T14:49:03.197Z,63.25
2022-10-20T14:51:32.502Z,63.48
2022-10-20T14:54:20.883Z,63.62
2022-10-20T14:56:50.005Z,63.71
2022-10-20T14:59:28.275Z,64.49
2022-10-20T15:02:18.695Z,64.79
2022-10-20T15:04:46.502Z,64.60
2022-10-20T15:07:27.415Z,64.37
2022-10-20T15:10:06.008Z,65.18
2022-10-20T15:12:42.515Z,65.84
2022-10-20T15:15:11.588Z,65.78
2022-10-20T15:17:44.348Z,66.24
2022-10-20T15:20:33.357Z,66.15
2022-10-20T15:23:14.851Z,66.70
2022-10-20T15:26:06.155Z,66.80
2022-10-20T15:28:48.918Z,67.39
2022-10-20T15:31:18.236Z,67.68
2022-10-20T15:33:44.630Z,68.30
2022-10-20T15:36:16.443Z,68.20
2022-10-20T15:38:43.286Z,68.40
2022-10-20T15:41:21.182Z,68.81
2022-10-20T15:43:47.574Z,69.44
2022-10-20T15:46:15.477Z,69.65
2022-10-20T15:48:43.173Z,70.48
2022-10-20T15:51:25.999Z,69.92
2022-10-20T15:53:54.129Z,70.72
2022-10-20T15:56:21.019Z,71.59
2022-10-20T15:58:49.189Z,71.34
2022-10-20T16:01:18.995Z,72.11
2022-10-20T16:03:46.949Z,72.27
2022-10-20T16:06:15.483Z,71.98
2022-10-20T16:08:43.704Z,72.05
2022-10-20T16:11:11.848Z,73.13
2022-10-20T16:13:39.081Z,72.34
2022-10-20T16:16:07.385Z,72.25
2022-10-20T16:18:33.888Z,72.50
2022-10-20T16:21:00.964Z,72.56
2022-10-20T16:23:27.348Z,72.99
2022-10-20T16:25:53.706Z,71.77
2022-10-20T16:28:20.185Z,72.71
2022-10-20T16:30:46.590Z,72.95
2022-10-20T16:33:13.016Z,72.70
2022-10-20T16:35:43.556Z,72.47
2022-10-20T16:38:10.639Z,72.97
2022-10-20T16:40:37.127Z,73.00
2022-10-20T16:43:03.550Z,73.25
2022-10-20T16:45:29.943Z,73.62
2022-10-20T16:47:56.361Z,73.23
2022-10-20T16:50:22.730Z,73.07
2022-10-20T16:52:49.099Z,73.68
2022-10-20T16:55:15.465Z,74.32
2022-10-20T16:57:41.830Z,75.12
2022-10-20T17:00:09.289Z,74.58
2022-10-20T17:02:36.395Z,75.41
2022-10-20T17:05:05.412Z,76.64
2022-10-20T17:07:34.976Z,77.11
2022-10-20T17:10:01.614Z,78.78
2022-10-20T17:12:27.988Z,79.67
2022-10-20T17:14:54.383Z,79.59
2022-10-20T17:17:20.836Z,80.08
2022-10-20T17:19:47.247Z,80.18
2022-10-20T17:22:13.662Z,80.79
2022-10-20T17:24:40.055Z,80.64
2022-10-20T17:27:06.422Z,81.52
2022-10-20T17:29:32.811Z,81.93
2022-10-20T17:31:59.186Z,82.73
2022-10-20T17:34:25.569Z,83.43
2022-10-20T17:36:51.956Z,82.98
2022-10-20T17:39:20.463Z,82.31
2022-10-20T17:41:46.847Z,82.03
2022-10-20T17:44:13.217Z,82.81
2022-10-20T17:46:39.629Z,82.37
2022-10-20T17:49:06.203Z,82.56
2022-10-20T17:51:34.839Z,83.41
2022-10-20T17:54:02.338Z,84.28
2022-10-20T17:56:31.965Z,84.68
2022-10-20T17:59:00.305Z,84.30
2022-10-20T18:01:32.328Z,84.71
2022-10-20T18:04:10.733Z,84.96
2022-10-20T18:06:38.212Z,85.14
2022-10-20T18:09:13.291Z,85.55
2022-10-20T18:11:42.773Z,86.29
2022-10-20T18:14:09.242Z,86.22
2022-10-20T18:16:37.227Z,87.48
2022-10-20T18:19:04.508Z,87.89
2022-10-20T18:21:31.701Z,87.30
2022-10-20T18:24:03.231Z,87.22
2022-10-20T18:26:31.702Z,87.17
2022-10-20T18:28:59.812Z,86.98
2022-10-20T18:31:30.392Z,87.59
2022-10-20T18:34:04.093Z,87.94
2022-10-20T18:36:31.281Z,87.20
2022-10-20T18:38:59.265Z,87.65
2022-10-20T18:41:28.136Z,88.04
2022-10-20T18:43:59.514Z,89.26
2022-10-20T18:46:27.290Z,88.81
2022-10-20T18:48:54.066Z,88.38
2022-10-20T18:51:20.674Z,89.02
2022-10-20T18:53:47.334Z,90.88
2022-10-20T18:56:14.886Z,89.80
2022-10-20T18:58:47.204Z,89.42
2022-10-20T19:01:15.517Z,89.31
2022-10-20T19:03:45.386Z,90.21
2022-10-20T19:06:18.248Z,90.72
2022-10-20T19:08:44.876Z,90.15
2022-10-20T19:11:13.413Z,91.36
2022-10-20T19:13:39.882Z,90.96
2022-10-20T19:16:09.830Z,90.24
2022-10-20T19:18:38.869Z,90.07
2022-10-20T19:21:06.374Z,90.81
2022-10-20T19:23:35.355Z,91.03
2022-10-20T19:26:05.616Z,91.18
2022-10-20T19:28:33.928Z,92.13
2022-10-20T19:31:01.332Z,91.47
2022-10-20T19:33:28.495Z,91.92
2022-10-20T19:35:55.072Z,91.60
2022-10-20T19:38:21.546Z,91.03
2022-10-20T19:40:47.993Z,91.79
2022-10-20T19:43:14.391Z,91.94
2022-10-20T19:45:40.783Z,92.01
2022-10-20T19:48:07.178Z,92.03
2022-10-20T19:50:34.464Z,92.05
2022-10-20T19:53:00.857Z,91.95
2022-10-20T19:55:27.223Z,92.21
2022-10-20T19:57:53.608Z,92.77
2022-10-20T20:00:20.084Z,94.11
2022-10-20T20:02:46.450Z,93.44
2022-10-20T20:05:12.842Z,94.13
2022-10-20T20:07:39.974Z,94.67
2022-10-20T20:10:06.799Z,94.47
2022-10-20T20:12:33.169Z,95.00
2022-10-20T20:14:59.648Z,94.45
2022-10-20T20:17:26.039Z,95.16
2022-10-20T20:19:52.467Z,93.79
2022-10-20T20:22:18.843Z,93.98
2022-10-20T20:24:45.259Z,93.55
2022-10-20T20:27:11.701Z,93.67
2022-10-20T20:29:38.111Z,94.90
2022-10-20T20:32:04.574Z,94.55
2022-10-20T20:34:30.968Z,94.58
2022-10-20T20:36:57.358Z,94.27
2022-10-20T20:39:24.119Z,94.13
2022-10-20T20:41:50.514Z,94.93
2022-10-20T20:44:16.995Z,94.93
2022-10-20T20:46:43.499Z,93.93
2022-10-20T20:49:09.949Z,92.73
2022-10-20T20:51:36.376Z,92.98
2022-10-20T20:54:03.492Z,94.79
2022-10-20T20:56:29.871Z,93.98
2022-10-20T20:58:56.253Z,94.30
2022-10-20T21:01:23.691Z,94.91
2022-10-20T21:03:54.634Z,94.55
2022-10-20T21:06:25.640Z,94.08
2022-10-20T21:08:59.923Z,94.49
2022-10-20T21:11:27.128Z,94.52
2022-10-20T21:13:55.518Z,94.57
2022-10-20T21:16:25.681Z,94.75
2022-10-20T21:18:54.602Z,94.31
2022-10-20T21:21:23.423Z,95.03
2022-10-20T21:23:50.614Z,94.12
2022-10-20T21:26:18.685Z,93.92
2022-10-20T21:28:45.831Z,94.20
2022-10-20T21:31:15.248Z,94.57
2022-10-20T21:33:42.546Z,93.95
2022-10-20T21:36:11.111Z,94.24
2022-10-20T21:38:38.867Z,93.62
2022-10-20T21:41:10.851Z,94.31
2022-10-20T21:43:40.542Z,93.45
2022-10-20T21:46:19.357Z,94.51
2022-10-20T21:48:48.781Z,93.84
2022-10-20T21:51:20.936Z,95.30
2022-10-20T21:53:47.768Z,93.73
2022-10-20T21:56:15.686Z,94.27
2022-10-20T21:58:43.483Z,95.61
2022-10-20T22:01:14.736Z,96.58
2022-10-20T22:03:42.160Z,96.34
2022-10-20T22:06:10.354Z,97.96
2022-10-20T22:08:42.430Z,97.04
2022-10-20T22:11:12.484Z,98.26
2022-10-20T22:13:38.915Z,98.38
2022-10-20T22:16:06.892Z,98.94
2022-10-20T22:18:33.279Z,100.00
2022-10-20T22:21:13.295Z,100.00
2022-10-20T22:23:40.707Z,100.00
2022-10-20T22:26:07.438Z,100.00
2022-10-20T22:28:33.987Z,100.00
2022-10-20T22:33:27.679Z,100.00
2022-10-20T22:35:54.062Z,100.00
2022-10-20T22:38:20.467Z,100.00
2022-10-20T22:40:46.856Z,100.00
2022-10-20T22:43:13.438Z,100.00
2022-10-20T22:45:39.831Z,100.00
2022-10-20T22:48:06.372Z,100.00
2022-10-20T22:50:32.811Z,100.00
2022-10-20T22:52:59.263Z,100.00
2022-10-20T22:55:25.652Z,100.00
2022-10-20T22:57:52.177Z,100.00
2022-10-20T23:00:19.703Z,100.00
2022-10-20T23:02:46.102Z,100.00
2022-10-20T23:05:12.523Z,100.00
2022-10-20T23:07:39.515Z,100.00
2022-10-20T23:10:06.699Z,100.00
2022-10-20T23:12:33.405Z,100.00
2022-10-20T23:14:59.783Z,100.00
2022-10-20T23:17:26.540Z,100.00
2022-10-20T23:19:52.931Z,100.00
2022-10-20T23:22:19.311Z,100.00
2022-10-20T23:24:46.310Z,100.00
2022-10-20T23:27:12.687Z,100.00
2022-10-20T23:29:39.070Z,100.00
2022-10-20T23:32:05.507Z,100.00
2022-10-20T23:34:31.953Z,100.00
2022-10-20T23:36:58.399Z,100.00
2022-10-20T23:39:24.795Z,100.00
2022-10-20T23:41:51.184Z,100.00
2022-10-20T23:44:17.573Z,100.00
2022-10-20T23:46:43.991Z,100.00
2022-10-20T23:49:10.409Z,100.00
2022-10-20T23:51:36.806Z,100.00
2022-10-20T23:54:03.450Z,100.00
2022-10-20T23:56:29.846Z,100.00
2022-10-20T23:58:56.293Z,100.00
